sensor_id;sensor_type;location;lat;lon;timestamp;pressure;altitude;pressure_sealevel;temperature;humidity
51617;BME280;37697;52.588;13.394;2024-02-26T00:04:01;99965.41;;;0.53;85.13
51617;BME280;37697;52.588;13.394;2024-02-26T00:09:27;99959.61;;;0.44;85.13
51617;BME280;37697;52.588;13.394;2024-02-26T00:14:54;99965.10;;;0.39;85.36
51617;BME280;37697;52.588;13.394;2024-02-26T00:20:20;99959.62;;;0.29;85.40
51617;BME280;37697;52.588;13.394;2024-02-26T00:25:46;99949.77;;;0.25;85.80
51617;BME280;37697;52.588;13.394;2024-02-26T00:31:12;99950.52;;;0.18;85.68
51617;BME280;37697;52.588;13.394;2024-02-26T00:36:37;99942.88;;;0.14;86.05
51617;BME280;37697;52.588;13.394;2024-02-26T00:42:04;99943.21;;;0.11;86.10
51617;BME280;37697;52.588;13.394;2024-02-26T00:47:29;99938.07;;;0.06;86.24
51617;BME280;37697;52.588;13.394;2024-02-26T00:52:56;99937.08;;;-0.05;86.53
51617;BME280;37697;52.588;13.394;2024-02-26T00:58:22;99939.10;;;-0.08;86.75
51617;BME280;37697;52.588;13.394;2024-02-26T01:03:48;99934.31;;;-0.11;87.14
51617;BME280;37697;52.588;13.394;2024-02-26T01:09:15;99934.81;;;-0.14;87.18
51617;BME280;37697;52.588;13.394;2024-02-26T01:14:40;99932.05;;;-0.18;87.40
51617;BME280;37697;52.588;13.394;2024-02-26T01:20:08;99932.04;;;-0.20;87.50
51617;BME280;37697;52.588;13.394;2024-02-26T01:25:34;99931.64;;;-0.24;87.52
51617;BME280;37697;52.588;13.394;2024-02-26T01:30:59;99934.06;;;-0.34;87.63
51617;BME280;37697;52.588;13.394;2024-02-26T01:36:25;99926.69;;;-0.41;88.02
51617;BME280;37697;52.588;13.394;2024-02-26T01:41:43;99933.45;;;-0.41;88.01
51617;BME280;37697;52.588;13.394;2024-02-26T01:47:11;99927.89;;;-0.43;88.26
51617;BME280;37697;52.588;13.394;2024-02-26T01:52:38;99919.24;;;-0.47;88.29
51617;BME280;37697;52.588;13.394;2024-02-26T01:58:05;99912.98;;;-0.54;88.28
51617;BME280;37697;52.588;13.394;2024-02-26T02:03:31;99911.77;;;-0.60;88.56
51617;BME280;37697;52.588;13.394;2024-02-26T02:08:57;99919.27;;;-0.62;88.48
51617;BME280;37697;52.588;13.394;2024-02-26T02:14:25;99924.38;;;-0.63;88.75
51617;BME280;37697;52.588;13.394;2024-02-26T02:19:51;99926.35;;;-0.64;88.76
51617;BME280;37697;52.588;13.394;2024-02-26T02:25:16;99922.90;;;-0.64;88.93
51617;BME280;37697;52.588;13.394;2024-02-26T02:30:42;99921.23;;;-0.67;88.95
51617;BME280;37697;52.588;13.394;2024-02-26T02:36:08;99917.00;;;-0.72;89.13
51617;BME280;37697;52.588;13.394;2024-02-26T02:41:33;99917.44;;;-0.76;89.17
51617;BME280;37697;52.588;13.394;2024-02-26T02:46:59;99921.45;;;-0.78;89.17
51617;BME280;37697;52.588;13.394;2024-02-26T02:52:25;99922.20;;;-0.83;89.29
51617;BME280;37697;52.588;13.394;2024-02-26T02:57:52;99920.74;;;-0.93;89.24
51617;BME280;37697;52.588;13.394;2024-02-26T03:03:17;99929.69;;;-0.98;89.71
51617;BME280;37697;52.588;13.394;2024-02-26T03:08:43;99928.33;;;-0.99;89.82
51617;BME280;37697;52.588;13.394;2024-02-26T03:14:09;99933.27;;;-0.98;89.93
51617;BME280;37697;52.588;13.394;2024-02-26T03:19:35;99936.64;;;-0.97;90.12
51617;BME280;37697;52.588;13.394;2024-02-26T03:24:59;99938.44;;;-0.99;90.25
51617;BME280;37697;52.588;13.394;2024-02-26T03:30:25;99934.31;;;-1.00;90.25
51617;BME280;37697;52.588;13.394;2024-02-26T03:35:50;99933.81;;;-1.02;90.34
51617;BME280;37697;52.588;13.394;2024-02-26T03:41:16;99932.90;;;-1.04;90.43
51617;BME280;37697;52.588;13.394;2024-02-26T03:46:42;99930.48;;;-1.07;90.51
51617;BME280;37697;52.588;13.394;2024-02-26T03:52:06;99938.23;;;-1.09;90.53
51617;BME280;37697;52.588;13.394;2024-02-26T03:57:32;99938.60;;;-1.10;90.74
51617;BME280;37697;52.588;13.394;2024-02-26T04:02:58;99942.72;;;-1.12;90.87
51617;BME280;37697;52.588;13.394;2024-02-26T04:08:24;99949.80;;;-1.15;91.07
51617;BME280;37697;52.588;13.394;2024-02-26T04:13:39;99954.30;;;-1.18;91.18
51617;BME280;37697;52.588;13.394;2024-02-26T04:19:05;99951.99;;;-1.20;91.48
51617;BME280;37697;52.588;13.394;2024-02-26T04:24:31;99959.27;;;-1.21;91.72
51617;BME280;37697;52.588;13.394;2024-02-26T04:29:57;99965.27;;;-1.22;91.75
51617;BME280;37697;52.588;13.394;2024-02-26T04:35:22;99966.77;;;-1.19;92.25
51617;BME280;37697;52.588;13.394;2024-02-26T04:40:48;99968.38;;;-1.16;92.20
51617;BME280;37697;52.588;13.394;2024-02-26T04:46:14;99976.58;;;-1.17;92.25
51617;BME280;37697;52.588;13.394;2024-02-26T04:51:39;99984.15;;;-1.17;92.46
51617;BME280;37697;52.588;13.394;2024-02-26T04:57:05;99990.44;;;-1.16;92.38
51617;BME280;37697;52.588;13.394;2024-02-26T05:02:31;99992.93;;;-1.15;92.53
51617;BME280;37697;52.588;13.394;2024-02-26T05:07:57;99992.58;;;-1.14;92.64
51617;BME280;37697;52.588;13.394;2024-02-26T05:13:23;99997.80;;;-1.16;92.75
51617;BME280;37697;52.588;13.394;2024-02-26T05:18:49;100001.36;;;-1.19;92.75
51617;BME280;37697;52.588;13.394;2024-02-26T05:24:15;100008.50;;;-1.21;92.76
51617;BME280;37697;52.588;13.394;2024-02-26T05:29:40;100013.93;;;-1.23;92.71
51617;BME280;37697;52.588;13.394;2024-02-26T05:35:08;100022.16;;;-1.25;92.85
51617;BME280;37697;52.588;13.394;2024-02-26T05:40:33;100022.95;;;-1.26;92.99
51617;BME280;37697;52.588;13.394;2024-02-26T05:45:59;100028.94;;;-1.30;92.95
51617;BME280;37697;52.588;13.394;2024-02-26T05:51:24;100036.36;;;-1.37;92.70
51617;BME280;37697;52.588;13.394;2024-02-26T05:56:42;100038.15;;;-1.39;92.89
51617;BME280;37697;52.588;13.394;2024-02-26T06:02:08;100042.85;;;-1.40;93.03
51617;BME280;37697;52.588;13.394;2024-02-26T06:07:33;100048.60;;;-1.39;92.93
51617;BME280;37697;52.588;13.394;2024-02-26T06:13:00;100055.50;;;-1.42;92.73
51617;BME280;37697;52.588;13.394;2024-02-26T06:18:25;100059.61;;;-1.43;93.24
51617;BME280;37697;52.588;13.394;2024-02-26T06:23:51;100061.54;;;-1.40;93.74
51617;BME280;37697;52.588;13.394;2024-02-26T06:29:17;100060.92;;;-1.35;93.79
51617;BME280;37697;52.588;13.394;2024-02-26T06:34:43;100064.55;;;-1.30;93.64
51617;BME280;37697;52.588;13.394;2024-02-26T06:40:01;100066.04;;;-1.22;93.83
51617;BME280;37697;52.588;13.394;2024-02-26T06:45:30;100069.80;;;-1.11;94.16
51617;BME280;37697;52.588;13.394;2024-02-26T06:50:56;100072.52;;;-0.93;94.23
51617;BME280;37697;52.588;13.394;2024-02-26T06:56:20;100072.16;;;-0.59;94.58
51617;BME280;37697;52.588;13.394;2024-02-26T07:01:46;100077.48;;;-0.19;95.03
51617;BME280;37697;52.588;13.394;2024-02-26T07:07:24;100084.77;;;0.16;95.55
51617;BME280;37697;52.588;13.394;2024-02-26T07:13:01;100097.32;;;0.49;95.86
51617;BME280;37697;52.588;13.394;2024-02-26T07:18:40;100103.61;;;0.86;96.75
51617;BME280;37697;52.588;13.394;2024-02-26T07:23:57;100107.31;;;1.19;97.46
51617;BME280;37697;52.588;13.394;2024-02-26T07:29:35;100110.98;;;1.55;98.17
51617;BME280;37697;52.588;13.394;2024-02-26T07:35:13;100111.17;;;1.86;99.17
51617;BME280;37697;52.588;13.394;2024-02-26T07:40:51;100114.83;;;2.12;99.56
51617;BME280;37697;52.588;13.394;2024-02-26T07:46:37;100118.70;;;2.35;99.90
51617;BME280;37697;52.588;13.394;2024-02-26T07:52:04;100114.18;;;2.50;99.84
51617;BME280;37697;52.588;13.394;2024-02-26T07:57:31;100114.32;;;2.72;99.96
51617;BME280;37697;52.588;13.394;2024-02-26T08:02:56;100110.05;;;2.99;100.00
51617;BME280;37697;52.588;13.394;2024-02-26T08:08:38;100112.60;;;3.23;100.00
51617;BME280;37697;52.588;13.394;2024-02-26T08:14:04;100111.81;;;3.36;99.78
51617;BME280;37697;52.588;13.394;2024-02-26T08:19:53;100111.88;;;3.47;99.77
51617;BME280;37697;52.588;13.394;2024-02-26T08:25:31;100116.85;;;3.64;99.76
51617;BME280;37697;52.588;13.394;2024-02-26T08:31:08;100114.21;;;3.80;99.77
51617;BME280;37697;52.588;13.394;2024-02-26T08:36:47;100110.50;;;3.99;99.85
51617;BME280;37697;52.588;13.394;2024-02-26T08:42:25;100114.22;;;4.22;99.81
51617;BME280;37697;52.588;13.394;2024-02-26T08:47:50;100117.95;;;4.52;99.44
51617;BME280;37697;52.588;13.394;2024-02-26T08:53:16;100114.93;;;4.83;99.14
51617;BME280;37697;52.588;13.394;2024-02-26T08:58:48;100109.17;;;5.20;99.51
51617;BME280;37697;52.588;13.394;2024-02-26T09:04:14;100104.89;;;5.46;97.93
51617;BME280;37697;52.588;13.394;2024-02-26T09:09:40;100101.97;;;5.64;97.48
51617;BME280;37697;52.588;13.394;2024-02-26T09:15:07;100102.31;;;6.01;96.89
51617;BME280;37697;52.588;13.394;2024-02-26T09:20:33;100106.07;;;6.45;96.09
51617;BME280;37697;52.588;13.394;2024-02-26T09:25:58;100100.98;;;6.91;96.39
51617;BME280;37697;52.588;13.394;2024-02-26T09:31:18;100101.16;;;7.25;94.77
51617;BME280;37697;52.588;13.394;2024-02-26T09:36:44;100105.39;;;7.52;93.83
51617;BME280;37697;52.588;13.394;2024-02-26T09:42:26;100112.64;;;7.76;92.84
51617;BME280;37697;52.588;13.394;2024-02-26T09:47:52;100110.97;;;7.94;92.12
51617;BME280;37697;52.588;13.394;2024-02-26T09:53:22;100117.48;;;8.07;91.11
51617;BME280;37697;52.588;13.394;2024-02-26T09:58:49;100119.02;;;8.19;90.63
51617;BME280;37697;52.588;13.394;2024-02-26T10:04:16;100120.63;;;8.24;89.40
51617;BME280;37697;52.588;13.394;2024-02-26T10:09:42;100123.59;;;8.37;88.61
51617;BME280;37697;52.588;13.394;2024-02-26T10:15:09;100124.84;;;8.64;88.48
51617;BME280;37697;52.588;13.394;2024-02-26T10:20:35;100124.67;;;8.91;87.99
51617;BME280;37697;52.588;13.394;2024-02-26T10:26:01;100126.45;;;9.16;87.67
51617;BME280;37697;52.588;13.394;2024-02-26T10:31:27;100125.17;;;9.43;87.02
51617;BME280;37697;52.588;13.394;2024-02-26T10:36:54;100121.11;;;9.61;85.56
51617;BME280;37697;52.588;13.394;2024-02-26T10:42:20;100115.77;;;9.87;84.37
51617;BME280;37697;52.588;13.394;2024-02-26T10:47:47;100117.57;;;10.11;83.81
51617;BME280;37697;52.588;13.394;2024-02-26T10:53:15;100118.98;;;10.08;82.69
51617;BME280;37697;52.588;13.394;2024-02-26T10:58:42;100124.33;;;10.33;80.66
51617;BME280;37697;52.588;13.394;2024-02-26T11:04:09;100127.48;;;10.49;79.96
51617;BME280;37697;52.588;13.394;2024-02-26T11:09:35;100122.73;;;10.67;78.46
51617;BME280;37697;52.588;13.394;2024-02-26T11:15:01;100125.08;;;10.67;74.58
51617;BME280;37697;52.588;13.394;2024-02-26T11:20:26;100124.71;;;10.76;75.97
51617;BME280;37697;52.588;13.394;2024-02-26T11:25:55;100118.05;;;10.94;77.08
51617;BME280;37697;52.588;13.394;2024-02-26T11:31:25;100120.64;;;11.11;76.59
51617;BME280;37697;52.588;13.394;2024-02-26T11:36:42;100122.41;;;11.22;75.03
51617;BME280;37697;52.588;13.394;2024-02-26T11:42:09;100121.66;;;11.23;75.07
51617;BME280;37697;52.588;13.394;2024-02-26T11:47:36;100125.19;;;11.14;71.85
51617;BME280;37697;52.588;13.394;2024-02-26T11:53:20;100126.75;;;11.13;73.48
51617;BME280;37697;52.588;13.394;2024-02-26T11:58:46;100122.77;;;11.16;73.50
51617;BME280;37697;52.588;13.394;2024-02-26T12:04:17;100119.23;;;11.16;72.25
51617;BME280;37697;52.588;13.394;2024-02-26T12:09:43;100123.58;;;11.25;73.58
51617;BME280;37697;52.588;13.394;2024-02-26T12:15:09;100120.84;;;11.37;73.02
51617;BME280;37697;52.588;13.394;2024-02-26T12:20:35;100120.66;;;11.33;71.57
51617;BME280;37697;52.588;13.394;2024-02-26T12:26:01;100124.17;;;11.48;70.09
51617;BME280;37697;52.588;13.394;2024-02-26T12:31:19;100123.05;;;11.56;67.21
51617;BME280;37697;52.588;13.394;2024-02-26T12:36:45;100123.58;;;11.72;66.85
51617;BME280;37697;52.588;13.394;2024-02-26T12:42:11;100127.59;;;11.93;63.64
51617;BME280;37697;52.588;13.394;2024-02-26T12:47:38;100132.06;;;12.12;62.55
51617;BME280;37697;52.588;13.394;2024-02-26T12:53:04;100131.94;;;12.24;63.38
51617;BME280;37697;52.588;13.394;2024-02-26T12:58:31;100133.52;;;12.21;62.11
51617;BME280;37697;52.588;13.394;2024-02-26T13:04:06;100135.27;;;12.17;63.34
51617;BME280;37697;52.588;13.394;2024-02-26T13:09:35;100131.11;;;11.96;61.95
51617;BME280;37697;52.588;13.394;2024-02-26T13:15:01;100122.17;;;11.83;61.25
51617;BME280;37697;52.588;13.394;2024-02-26T13:20:29;100125.80;;;11.80;59.22
51617;BME280;37697;52.588;13.394;2024-02-26T13:25:57;100124.73;;;11.83;59.69
51617;BME280;37697;52.588;13.394;2024-02-26T13:31:23;100132.59;;;11.82;57.14
51617;BME280;37697;52.588;13.394;2024-02-26T13:36:49;100129.98;;;11.72;57.08
51617;BME280;37697;52.588;13.394;2024-02-26T13:42:15;100132.55;;;11.68;57.87
51617;BME280;37697;52.588;13.394;2024-02-26T13:47:30;100131.23;;;11.66;57.58
51617;BME280;37697;52.588;13.394;2024-02-26T13:52:56;100129.42;;;11.62;58.42
51617;BME280;37697;52.588;13.394;2024-02-26T13:58:22;100131.66;;;11.55;57.65
51617;BME280;37697;52.588;13.394;2024-02-26T14:03:47;100142.05;;;11.52;58.47
51617;BME280;37697;52.588;13.394;2024-02-26T14:09:06;100149.83;;;11.43;58.99
51617;BME280;37697;52.588;13.394;2024-02-26T14:14:30;100153.23;;;11.32;58.93
51617;BME280;37697;52.588;13.394;2024-02-26T14:19:56;100162.27;;;11.31;59.69
51617;BME280;37697;52.588;13.394;2024-02-26T14:25:22;100177.86;;;11.27;58.53
51617;BME280;37697;52.588;13.394;2024-02-26T14:30:48;100179.44;;;11.21;58.51
51617;BME280;37697;52.588;13.394;2024-02-26T14:36:14;100186.92;;;11.16;58.75
51617;BME280;37697;52.588;13.394;2024-02-26T14:41:40;100196.42;;;11.07;59.05
51617;BME280;37697;52.588;13.394;2024-02-26T14:47:07;100208.23;;;11.02;60.07
51617;BME280;37697;52.588;13.394;2024-02-26T14:52:32;100210.55;;;10.96;59.07
51617;BME280;37697;52.588;13.394;2024-02-26T14:57:58;100218.11;;;10.89;59.68
51617;BME280;37697;52.588;13.394;2024-02-26T15:03:24;100224.07;;;10.78;60.24
51617;BME280;37697;52.588;13.394;2024-02-26T15:08:50;100227.04;;;10.70;61.21
51617;BME280;37697;52.588;13.394;2024-02-26T15:14:18;100237.80;;;10.61;61.35
51617;BME280;37697;52.588;13.394;2024-02-26T15:19:24;100239.52;;;10.54;61.45
51617;BME280;37697;52.588;13.394;2024-02-26T15:24:49;100244.39;;;10.44;62.75
51617;BME280;37697;52.588;13.394;2024-02-26T15:30:19;100247.39;;;10.37;63.14
51617;BME280;37697;52.588;13.394;2024-02-26T15:35:45;100241.77;;;10.32;63.50
51617;BME280;37697;52.588;13.394;2024-02-26T15:41:13;100248.96;;;10.25;63.98
51617;BME280;37697;52.588;13.394;2024-02-26T15:46:41;100254.48;;;10.18;64.73
51617;BME280;37697;52.588;13.394;2024-02-26T15:51:54;100264.64;;;10.14;65.26
51617;BME280;37697;52.588;13.394;2024-02-26T15:57:20;100272.29;;;10.10;66.05
51617;BME280;37697;52.588;13.394;2024-02-26T16:02:48;100274.83;;;10.02;66.32
51617;BME280;37697;52.588;13.394;2024-02-26T16:07:57;100279.30;;;9.92;67.05
51617;BME280;37697;52.588;13.394;2024-02-26T16:13:25;100283.83;;;9.83;67.47
51617;BME280;37697;52.588;13.394;2024-02-26T16:18:50;100291.59;;;9.76;68.22
51617;BME280;37697;52.588;13.394;2024-02-26T16:24:16;100293.86;;;9.67;69.10
51617;BME280;37697;52.588;13.394;2024-02-26T16:29:42;100302.45;;;9.53;69.47
51617;BME280;37697;52.588;13.394;2024-02-26T16:35:00;100311.60;;;9.44;70.22
51617;BME280;37697;52.588;13.394;2024-02-26T16:40:26;100318.31;;;9.36;70.62
51617;BME280;37697;52.588;13.394;2024-02-26T16:45:36;100319.89;;;9.23;70.99
51617;BME280;37697;52.588;13.394;2024-02-26T16:51:02;100328.27;;;9.10;71.65
51617;BME280;37697;52.588;13.394;2024-02-26T16:56:19;100332.81;;;9.02;72.58
51617;BME280;37697;52.588;13.394;2024-02-26T17:01:47;100337.52;;;8.94;73.35
51617;BME280;37697;52.588;13.394;2024-02-26T17:07:03;100337.33;;;8.85;73.72
51617;BME280;37697;52.588;13.394;2024-02-26T17:12:15;100345.27;;;8.77;74.31
51617;BME280;37697;52.588;13.394;2024-02-26T17:17:41;100345.61;;;8.69;74.67
51617;BME280;37697;52.588;13.394;2024-02-26T17:22:57;100350.09;;;8.61;75.09
51617;BME280;37697;52.588;13.394;2024-02-26T17:28:23;100357.80;;;8.52;75.75
51617;BME280;37697;52.588;13.394;2024-02-26T17:33:49;100364.23;;;8.46;75.91
51617;BME280;37697;52.588;13.394;2024-02-26T17:39:15;100369.30;;;8.39;76.88
51617;BME280;37697;52.588;13.394;2024-02-26T17:44:41;100378.23;;;8.31;76.76
51617;BME280;37697;52.588;13.394;2024-02-26T17:50:09;100385.00;;;8.26;77.13
51617;BME280;37697;52.588;13.394;2024-02-26T17:55:34;100405.10;;;8.21;76.85
51617;BME280;37697;52.588;13.394;2024-02-26T18:01:00;100415.70;;;8.16;77.35
51617;BME280;37697;52.588;13.394;2024-02-26T18:06:26;100431.83;;;8.07;77.75
51617;BME280;37697;52.588;13.394;2024-02-26T18:11:54;100441.03;;;8.00;77.93
51617;BME280;37697;52.588;13.394;2024-02-26T18:17:23;100444.90;;;7.93;78.14
51617;BME280;37697;52.588;13.394;2024-02-26T18:22:49;100446.42;;;7.89;78.74
51617;BME280;37697;52.588;13.394;2024-02-26T18:28:15;100457.84;;;7.84;78.95
51617;BME280;37697;52.588;13.394;2024-02-26T18:33:40;100468.85;;;7.75;79.19
51617;BME280;37697;52.588;13.394;2024-02-26T18:39:06;100475.79;;;7.67;79.50
51617;BME280;37697;52.588;13.394;2024-02-26T18:44:32;100479.91;;;7.60;79.78
51617;BME280;37697;52.588;13.394;2024-02-26T18:49:58;100486.36;;;7.55;79.86
51617;BME280;37697;52.588;13.394;2024-02-26T18:55:24;100487.64;;;7.49;79.88
51617;BME280;37697;52.588;13.394;2024-02-26T19:00:49;100484.73;;;7.42;80.14
51617;BME280;37697;52.588;13.394;2024-02-26T19:06:15;100492.04;;;7.37;80.26
51617;BME280;37697;52.588;13.394;2024-02-26T19:11:46;100492.71;;;7.33;80.51
51617;BME280;37697;52.588;13.394;2024-02-26T19:17:12;100491.70;;;7.30;80.37
51617;BME280;37697;52.588;13.394;2024-02-26T19:22:30;100494.54;;;7.25;80.63
51617;BME280;37697;52.588;13.394;2024-02-26T19:27:47;100499.41;;;7.18;80.71
51617;BME280;37697;52.588;13.394;2024-02-26T19:33:04;100495.27;;;7.11;80.92
51617;BME280;37697;52.588;13.394;2024-02-26T19:38:30;100498.16;;;7.03;80.65
51617;BME280;37697;52.588;13.394;2024-02-26T19:43:46;100501.30;;;6.93;81.00
51617;BME280;37697;52.588;13.394;2024-02-26T19:49:11;100506.05;;;6.85;81.20
51617;BME280;37697;52.588;13.394;2024-02-26T19:54:39;100509.40;;;6.77;81.38
51617;BME280;37697;52.588;13.394;2024-02-26T20:00:06;100511.92;;;6.68;81.41
51617;BME280;37697;52.588;13.394;2024-02-26T20:05:33;100509.27;;;6.60;81.61
51617;BME280;37697;52.588;13.394;2024-02-26T20:10:52;100519.27;;;6.52;81.72
51617;BME280;37697;52.588;13.394;2024-02-26T20:16:18;100528.23;;;6.46;81.83
51617;BME280;37697;52.588;13.394;2024-02-26T20:21:43;100520.42;;;6.42;82.08
51617;BME280;37697;52.588;13.394;2024-02-26T20:27:10;100525.38;;;6.37;82.10
51617;BME280;37697;52.588;13.394;2024-02-26T20:32:36;100526.65;;;6.31;82.26
51617;BME280;37697;52.588;13.394;2024-02-26T20:38:02;100540.02;;;6.26;82.26
51617;BME280;37697;52.588;13.394;2024-02-26T20:43:20;100550.21;;;6.19;82.48
51617;BME280;37697;52.588;13.394;2024-02-26T20:48:46;100556.41;;;6.11;82.48
51617;BME280;37697;52.588;13.394;2024-02-26T20:54:12;100568.86;;;6.01;82.58
51617;BME280;37697;52.588;13.394;2024-02-26T20:59:38;100573.39;;;5.93;82.76
51617;BME280;37697;52.588;13.394;2024-02-26T21:05:04;100579.58;;;5.82;82.99
51617;BME280;37697;52.588;13.394;2024-02-26T21:10:30;100591.66;;;5.76;83.03
51617;BME280;37697;52.588;13.394;2024-02-26T21:15:57;100599.48;;;5.72;83.40
51617;BME280;37697;52.588;13.394;2024-02-26T21:21:24;100603.25;;;5.68;83.51
51617;BME280;37697;52.588;13.394;2024-02-26T21:26:51;100610.14;;;5.64;83.70
51617;BME280;37697;52.588;13.394;2024-02-26T21:32:17;100612.16;;;5.62;84.11
51617;BME280;37697;52.588;13.394;2024-02-26T21:37:43;100613.58;;;5.61;84.01
51617;BME280;37697;52.588;13.394;2024-02-26T21:43:11;100616.91;;;5.56;84.49
51617;BME280;37697;52.588;13.394;2024-02-26T21:48:37;100614.78;;;5.50;84.68
51617;BME280;37697;52.588;13.394;2024-02-26T21:54:03;100618.92;;;5.46;84.56
51617;BME280;37697;52.588;13.394;2024-02-26T21:59:29;100625.52;;;5.40;84.51
51617;BME280;37697;52.588;13.394;2024-02-26T22:04:55;100630.49;;;5.33;84.83
51617;BME280;37697;52.588;13.394;2024-02-26T22:10:20;100641.36;;;5.27;85.01
51617;BME280;37697;52.588;13.394;2024-02-26T22:15:46;100647.89;;;5.18;85.25
51617;BME280;37697;52.588;13.394;2024-02-26T22:21:12;100651.16;;;5.13;85.16
51617;BME280;37697;52.588;13.394;2024-02-26T22:26:38;100658.27;;;5.05;85.70
51617;BME280;37697;52.588;13.394;2024-02-26T22:31:53;100661.48;;;5.02;85.67
51617;BME280;37697;52.588;13.394;2024-02-26T22:37:19;100660.20;;;4.94;85.96
51617;BME280;37697;52.588;13.394;2024-02-26T22:42:45;100659.42;;;4.89;85.91
51617;BME280;37697;52.588;13.394;2024-02-26T22:48:04;100666.45;;;4.87;86.00
51617;BME280;37697;52.588;13.394;2024-02-26T22:53:30;100669.59;;;4.80;85.92
51617;BME280;37697;52.588;13.394;2024-02-26T22:58:56;100666.23;;;4.73;86.03
51617;BME280;37697;52.588;13.394;2024-02-26T23:04:22;100667.61;;;4.66;86.02
51617;BME280;37697;52.588;13.394;2024-02-26T23:09:48;100670.20;;;4.59;86.32
51617;BME280;37697;52.588;13.394;2024-02-26T23:15:14;100669.84;;;4.53;86.61
51617;BME280;37697;52.588;13.394;2024-02-26T23:20:40;100670.19;;;4.47;86.98
51617;BME280;37697;52.588;13.394;2024-02-26T23:26:06;100671.73;;;4.41;86.44
51617;BME280;37697;52.588;13.394;2024-02-26T23:31:32;100676.46;;;4.29;86.61
51617;BME280;37697;52.588;13.394;2024-02-26T23:36:58;100679.60;;;4.19;86.43
51617;BME280;37697;52.588;13.394;2024-02-26T23:42:23;100684.55;;;4.08;87.00
51617;BME280;37697;52.588;13.394;2024-02-26T23:47:49;100690.23;;;4.01;87.19
51617;BME280;37697;52.588;13.394;2024-02-26T23:53:15;100697.42;;;3.95;87.44
51617;BME280;37697;52.588;13.394;2024-02-26T23:58:41;100699.91;;;3.93;87.69
